Time;durP1;ratioP1;P1;durP2;ratioP2;P2;SDS_P1;SDS_P2;PMS_P1;PMS_P2;Temp;Humidity;BMP_temperature;BMP_pressure;BME280_temperature;BME280_humidity;BME280_pressure;Samples;Min_cycle;Max_cycle;Signal;HPM_P1;HPM_P2
2023/09/29 00:01:44;;;;;;;14.70;5.37;;;;;;;16.25;85.33;95658.44;5012434;28;20288;-79
2023/09/29 00:04:10;;;;;;;11.43;5.00;;;;;;;16.37;85.70;95656.69;5008740;28;20226;-79
2023/09/29 00:06:36;;;;;;;12.07;5.07;;;;;;;16.41;85.58;95655.22;5023765;28;20228;-77
2023/09/29 00:09:04;;;;;;;21.97;5.67;;;;;;;16.10;86.14;95656.09;5010607;28;20237;-72
2023/09/29 00:11:31;;;;;;;13.57;5.20;;;;;;;16.32;85.89;95653.88;5008866;28;20230;-72
2023/09/29 00:13:57;;;;;;;13.23;5.00;;;;;;;16.16;86.43;95655.25;4999554;28;20223;-71
2023/09/29 00:16:23;;;;;;;12.63;5.10;;;;;;;16.24;85.80;95654.19;5012759;28;20218;-73
2023/09/29 00:18:48;;;;;;;12.03;4.93;;;;;;;16.30;85.73;95651.47;5017734;28;20241;-71
2023/09/29 00:21:14;;;;;;;14.40;4.67;;;;;;;15.99;86.16;95654.97;5018562;28;20222;-72
2023/09/29 00:23:39;;;;;;;12.17;4.87;;;;;;;16.07;86.39;95651.28;5016785;28;20292;-72
2023/09/29 00:26:05;;;;;;;14.73;5.27;;;;;;;16.14;86.38;95655.47;5024441;28;20307;-70
2023/09/29 00:28:31;;;;;;;13.30;5.23;;;;;;;15.98;86.58;95648.06;5003760;28;20279;-72
2023/09/29 00:30:57;;;;;;;13.37;4.80;;;;;;;16.12;86.53;95651.44;5017138;28;20230;-71
2023/09/29 00:33:23;;;;;;;13.03;5.50;;;;;;;16.04;86.61;95649.06;5020193;28;20237;-71
2023/09/29 00:35:48;;;;;;;14.20;5.40;;;;;;;15.93;87.46;95650.53;5007086;28;20246;-72
2023/09/29 00:38:14;;;;;;;14.40;5.13;;;;;;;16.02;86.79;95657.22;5040142;28;20269;-71
2023/09/29 00:40:39;;;;;;;13.33;4.93;;;;;;;16.04;85.91;95652.50;5040237;28;20316;-72
2023/09/29 00:43:06;;;;;;;16.03;5.00;;;;;;;16.14;85.92;95657.31;5040693;28;20703;-72
2023/09/29 00:45:33;;;;;;;13.30;5.20;;;;;;;16.06;86.03;95654.94;5025384;28;20287;-71
2023/09/29 00:48:07;;;;;;;14.63;5.10;;;;;;;16.08;86.43;95652.88;5007795;28;20254;-73
2023/09/29 00:50:32;;;;;;;14.60;5.03;;;;;;;16.13;86.00;95653.84;5008312;28;20308;-71
2023/09/29 00:52:59;;;;;;;12.57;4.90;;;;;;;16.11;86.50;95649.81;4999434;28;20321;-72
2023/09/29 00:55:28;;;;;;;12.77;4.67;;;;;;;15.96;86.58;95644.84;4987242;28;20230;-72
2023/09/29 00:57:55;;;;;;;17.37;4.93;;;;;;;15.67;88.30;95642.81;5020820;28;20229;-73
2023/09/29 01:00:32;;;;;;;15.27;5.13;;;;;;;15.87;87.67;95640.84;5013762;28;20609;-72
2023/09/29 01:03:09;;;;;;;13.67;4.70;;;;;;;15.70;87.63;95642.38;5021864;28;20252;-71
2023/09/29 01:05:36;;;;;;;12.37;4.80;;;;;;;15.59;88.25;95642.28;5006512;28;20222;-71
2023/09/29 01:08:09;;;;;;;11.20;4.70;;;;;;;15.91;87.23;95636.75;5006157;28;20229;-72
2023/09/29 01:10:38;;;;;;;13.70;4.80;;;;;;;15.74;87.82;95648.06;5020993;28;20230;-71
2023/09/29 01:13:03;;;;;;;15.43;5.17;;;;;;;15.46;88.61;95651.06;4994375;28;20261;-72
2023/09/29 01:15:31;;;;;;;11.90;4.70;;;;;;;15.66;88.34;95645.66;4992638;28;20245;-72
2023/09/29 01:17:57;;;;;;;14.80;4.80;;;;;;;15.52;88.99;95641.50;4990115;28;20225;-72
2023/09/29 01:20:29;;;;;;;10.80;4.60;;;;;;;15.54;89.03;95640.28;5016308;28;20229;-71
2023/09/29 01:22:55;;;;;;;13.27;5.03;;;;;;;15.81;87.65;95646.19;5010427;28;20230;-71
2023/09/29 01:25:21;;;;;;;10.20;4.70;;;;;;;15.58;88.44;95648.56;5004517;28;20310;-71
2023/09/29 01:27:48;;;;;;;12.60;5.20;;;;;;;15.53;89.02;95641.28;4996244;28;20320;-71
2023/09/29 01:30:13;;;;;;;13.90;5.23;;;;;;;15.72;88.31;95642.97;4986831;28;20230;-71
2023/09/29 01:32:42;;;;;;;11.50;4.57;;;;;;;15.60;89.13;95641.22;5017164;28;20620;-71
2023/09/29 01:35:10;;;;;;;11.30;4.90;;;;;;;15.72;88.09;95642.97;5039072;28;20771;-71
2023/09/29 01:37:36;;;;;;;8.47;4.70;;;;;;;15.79;88.02;95637.66;4983998;28;20703;-72
2023/09/29 01:40:02;;;;;;;13.23;4.70;;;;;;;15.49;89.18;95640.09;5005616;28;20229;-72
2023/09/29 01:42:27;;;;;;;12.57;4.97;;;;;;;15.63;88.62;95643.44;5010004;28;20817;-73
2023/09/29 01:44:53;;;;;;;9.30;4.63;;;;;;;15.77;87.70;95642.34;5029838;28;20234;-71
2023/09/29 01:47:18;;;;;;;14.17;4.47;;;;;;;15.61;88.07;95646.31;5006076;28;20670;-71
2023/09/29 01:49:44;;;;;;;11.07;4.87;;;;;;;15.69;87.81;95646.03;4998276;28;20626;-71
2023/09/29 01:52:13;;;;;;;11.70;4.73;;;;;;;15.48;88.66;95641.09;5022534;28;20806;-71
2023/09/29 01:54:39;;;;;;;12.57;4.93;;;;;;;15.46;88.89;95643.16;5006707;28;20258;-71
2023/09/29 01:57:04;;;;;;;10.57;4.87;;;;;;;15.40;89.13;95638.69;5006244;28;20241;-72
2023/09/29 01:59:30;;;;;;;16.77;4.90;;;;;;;15.67;87.94;95648.09;5000392;28;20226;-70
2023/09/29 02:01:56;;;;;;;11.80;5.10;;;;;;;15.17;89.41;95644.47;5013541;28;20249;-71
2023/09/29 02:04:21;;;;;;;11.70;5.00;;;;;;;15.16;90.13;95648.16;5000441;28;20226;-71
2023/09/29 02:06:50;;;;;;;11.93;5.07;;;;;;;15.44;88.89;95642.53;5020191;28;20242;-72
2023/09/29 02:09:16;;;;;;;16.40;5.00;;;;;;;15.03;90.94;95650.00;5000540;28;20423;-71
2023/09/29 02:11:45;;;;;;;13.97;4.80;;;;;;;15.08;91.13;95644.91;5002913;28;21090;-73
2023/09/29 02:14:11;;;;;;;13.50;5.00;;;;;;;15.36;89.88;95654.13;4999204;28;20233;-72
2023/09/29 02:16:37;;;;;;;14.87;5.00;;;;;;;15.08;90.28;95652.84;4981224;28;20237;-73
2023/09/29 02:19:03;;;;;;;12.90;4.90;;;;;;;15.18;90.45;95648.75;5021313;28;20636;-71
2023/09/29 02:21:31;;;;;;;14.50;5.00;;;;;;;15.36;89.52;95643.56;5021745;28;20222;-71
2023/09/29 02:23:57;;;;;;;14.13;4.90;;;;;;;15.29;89.38;95655.16;4999713;28;20222;-72
2023/09/29 02:26:23;;;;;;;13.33;5.00;;;;;;;15.43;88.97;95654.09;5005653;28;20227;-71
2023/09/29 02:28:48;;;;;;;14.23;5.13;;;;;;;15.63;88.54;95656.66;4988679;28;20230;-72
2023/09/29 02:31:14;;;;;;;12.13;4.97;;;;;;;15.58;87.86;95654.66;5028069;28;20273;-71
2023/09/29 02:33:40;;;;;;;11.93;5.30;;;;;;;15.62;87.83;95657.69;5012520;28;20256;-72
2023/09/29 02:36:09;;;;;;;13.70;5.00;;;;;;;15.49;88.26;95659.38;5008045;28;20296;-72
2023/09/29 02:38:36;;;;;;;13.37;5.00;;;;;;;15.66;87.34;95664.97;5008662;28;20233;-70
2023/09/29 02:41:02;;;;;;;12.80;4.77;;;;;;;15.92;85.48;95654.22;5002035;28;20229;-71
2023/09/29 02:43:30;;;;;;;10.33;4.93;;;;;;;15.84;85.48;95657.13;4993092;28;20222;-71
2023/09/29 02:45:58;;;;;;;13.07;4.63;;;;;;;15.92;86.00;95653.41;5021204;28;20287;-71
2023/09/29 02:48:24;;;;;;;13.70;5.17;;;;;;;15.78;86.21;95660.63;5004328;28;20376;-71
2023/09/29 02:50:50;;;;;;;11.57;4.83;;;;;;;15.67;86.26;95663.91;5023999;28;20279;-71
2023/09/29 02:53:15;;;;;;;14.57;5.03;;;;;;;15.68;86.68;95657.63;5016486;28;20253;-72
2023/09/29 02:55:41;;;;;;;15.50;5.03;;;;;;;15.87;85.61;95661.97;4979463;28;20609;-71
2023/09/29 02:58:07;;;;;;;15.13;5.00;;;;;;;15.93;84.90;95658.47;4992600;28;20263;-72
2023/09/29 03:00:34;;;;;;;14.43;5.00;;;;;;;15.88;85.54;95662.78;5009298;28;20229;-72
2023/09/29 03:03:00;;;;;;;14.17;4.90;;;;;;;15.76;86.41;95660.00;5008907;28;20230;-72
2023/09/29 03:05:25;;;;;;;13.43;4.70;;;;;;;15.79;86.27;95661.41;5042024;28;20225;-71
2023/09/29 03:07:51;;;;;;;14.23;4.90;;;;;;;15.82;86.00;95653.88;5015527;28;20234;-71
2023/09/29 03:10:17;;;;;;;10.47;4.73;;;;;;;15.90;86.05;95669.47;4993157;28;20236;-72
2023/09/29 03:12:43;;;;;;;12.67;4.93;;;;;;;15.91;86.43;95668.44;5008938;28;20238;-78
2023/09/29 03:15:11;;;;;;;13.53;5.10;;;;;;;15.83;86.86;95666.06;5009396;28;20234;-78
2023/09/29 03:17:37;;;;;;;15.00;5.23;;;;;;;15.74;87.21;95662.03;5007647;28;20893;-76
2023/09/29 03:20:08;;;;;;;17.47;5.20;;;;;;;15.85;86.72;95669.31;5017751;28;20230;-71
2023/09/29 03:22:37;;;;;;;17.67;5.50;;;;;;;15.75;87.01;95668.97;5025729;28;20598;-71
2023/09/29 03:25:06;;;;;;;16.10;5.00;;;;;;;15.64;87.70;95672.28;5002975;28;20708;-70
2023/09/29 03:27:32;;;;;;;19.27;5.30;;;;;;;15.67;87.53;95666.56;4985919;28;20264;-72
2023/09/29 03:30:00;;;;;;;20.90;5.03;;;;;;;15.58;87.82;95664.38;5000132;28;20231;-72
2023/09/29 03:32:26;;;;;;;16.90;5.00;;;;;;;15.71;87.18;95669.59;5001538;28;20230;-70
2023/09/29 03:34:53;;;;;;;16.93;5.30;;;;;;;15.74;87.15;95674.47;4998233;28;20905;-71
2023/09/29 03:37:19;;;;;;;14.63;4.93;;;;;;;15.63;87.68;95675.13;4999218;28;20801;-71
2023/09/29 03:39:44;;;;;;;14.60;5.20;;;;;;;15.49;87.68;95674.41;5001337;28;20872;-71
2023/09/29 03:42:11;;;;;;;20.13;5.20;;;;;;;15.47;88.05;95677.25;5006785;28;20232;-72
2023/09/29 03:44:36;;;;;;;13.27;5.03;;;;;;;15.52;87.30;95668.69;5005432;28;20254;-72
2023/09/29 03:47:02;;;;;;;16.80;5.00;;;;;;;15.56;86.72;95669.06;4997923;28;20254;-71
2023/09/29 03:49:30;;;;;;;13.00;5.17;;;;;;;15.51;86.94;95677.63;4990888;28;20237;-70
2023/09/29 03:51:56;;;;;;;17.07;5.30;;;;;;;15.42;87.15;95670.94;5016751;28;20230;-72
2023/09/29 03:54:22;;;;;;;15.40;5.20;;;;;;;15.49;87.20;95664.66;5024091;28;20305;-72
2023/09/29 03:56:47;;;;;;;12.77;4.93;;;;;;;15.56;86.17;95669.88;5007568;28;20230;-72
2023/09/29 03:59:13;;;;;;;19.00;5.03;;;;;;;15.43;87.21;95669.91;5006688;28;21045;-72
2023/09/29 04:01:38;;;;;;;14.03;5.17;;;;;;;15.45;87.09;95667.94;5015647;28;20222;-71
2023/09/29 04:04:04;;;;;;;22.27;5.60;;;;;;;15.24;88.62;95668.19;5015800;28;20321;-70
2023/09/29 04:06:30;;;;;;;14.40;4.93;;;;;;;15.30;88.37;95665.53;5038889;28;20736;-71
2023/09/29 04:08:56;;;;;;;17.03;5.70;;;;;;;15.37;87.95;95668.13;5014023;28;20317;-72
2023/09/29 04:11:21;;;;;;;17.30;5.50;;;;;;;15.40;88.54;95670.34;5020624;28;20727;-70
2023/09/29 04:13:47;;;;;;;13.37;5.50;;;;;;;15.35;88.64;95664.91;5001976;28;20245;-71
2023/09/29 04:16:17;;;;;;;15.53;5.20;;;;;;;15.39;88.12;95661.63;4957198;28;20423;-72
2023/09/29 04:19:15;;;;;;;;;;;;;;;;;;;;;
2023/09/29 04:22:06;;;;;;;;;;;;;;;;;;;;;
2023/09/29 04:24:31;;;;;;;12.10;5.30;;;;;;;15.22;88.66;95663.13;4987982;28;20973;-71
2023/09/29 04:26:57;;;;;;;18.27;5.90;;;;;;;15.29;88.51;95671.00;5030624;28;20242;-72
2023/09/29 04:29:22;;;;;;;16.57;6.43;;;;;;;15.30;88.72;95677.91;5023457;28;20234;-72
2023/09/29 04:31:48;;;;;;;17.93;6.40;;;;;;;15.26;88.37;95677.50;5014875;28;20229;-70
2023/09/29 04:34:14;;;;;;;18.47;5.40;;;;;;;15.34;88.58;95681.72;5021432;28;20265;-71
2023/09/29 04:36:40;;;;;;;14.07;5.63;;;;;;;15.48;87.16;95683.31;4979621;28;1211296;-70
2023/09/29 04:39:06;;;;;;;22.47;6.00;;;;;;;15.26;88.41;95684.63;5004257;28;20777;-71
2023/09/29 04:41:31;;;;;;;16.40;5.90;;;;;;;15.39;87.48;95684.56;5015876;28;20222;-70
2023/09/29 04:43:57;;;;;;;17.23;5.53;;;;;;;15.52;86.98;95687.16;4990236;28;20233;-72
2023/09/29 04:46:23;;;;;;;24.30;6.37;;;;;;;15.47;87.00;95681.72;5007084;28;20283;-72
2023/09/29 04:48:52;;;;;;;17.70;6.03;;;;;;;15.51;86.61;95685.53;5017074;28;20290;-71
2023/09/29 04:51:18;;;;;;;21.07;5.93;;;;;;;15.61;85.17;95691.19;5010703;28;20222;-71
2023/09/29 04:53:44;;;;;;;17.27;6.10;;;;;;;15.39;85.88;95695.91;4997208;28;20316;-72
2023/09/29 04:56:09;;;;;;;18.30;5.80;;;;;;;15.20;85.02;95688.09;4984136;28;20218;-71
2023/09/29 04:58:35;;;;;;;21.73;5.77;;;;;;;15.28;83.78;95701.88;5019398;28;20218;-71
2023/09/29 05:01:01;;;;;;;20.63;5.30;;;;;;;15.15;83.00;95693.16;5023249;28;21344;-71
2023/09/29 05:03:27;;;;;;;21.13;5.23;;;;;;;15.29;82.48;95702.66;5006619;28;20245;-72
2023/09/29 05:05:52;;;;;;;12.73;4.17;;;;;;;15.21;81.54;95700.25;5013746;28;20218;-71
2023/09/29 05:08:18;;;;;;;20.87;4.60;;;;;;;15.31;81.15;95697.97;4988816;28;20295;-71
2023/09/29 05:10:44;;;;;;;16.27;4.60;;;;;;;15.34;80.86;95698.38;4988741;28;20234;-71
2023/09/29 05:13:09;;;;;;;15.10;4.60;;;;;;;15.46;80.16;95706.47;5016961;28;20260;-72
2023/09/29 05:15:36;;;;;;;19.17;4.87;;;;;;;15.37;80.35;95705.88;5016399;28;20799;-72
2023/09/29 05:18:02;;;;;;;14.47;4.60;;;;;;;15.35;80.35;95709.75;5005395;28;20244;-72
2023/09/29 05:20:28;;;;;;;17.03;4.60;;;;;;;15.24;80.73;95703.28;5016541;28;20229;-72
2023/09/29 05:22:54;;;;;;;17.97;5.13;;;;;;;15.11;80.48;95708.63;5018753;28;20263;-71
2023/09/29 05:25:19;;;;;;;20.47;4.70;;;;;;;15.35;80.13;95710.56;4996498;28;20672;-69
2023/09/29 05:27:45;;;;;;;15.17;4.93;;;;;;;15.31;79.58;95711.16;5018119;28;20261;-71
2023/09/29 05:30:12;;;;;;;15.63;5.13;;;;;;;15.54;79.60;95715.97;4990720;28;20226;-71
2023/09/29 05:32:38;;;;;;;20.27;5.43;;;;;;;15.47;79.49;95716.00;5005172;28;20242;-72
2023/09/29 05:35:03;;;;;;;21.37;5.30;;;;;;;15.48;79.37;95709.69;5016214;28;20218;-72
2023/09/29 05:37:30;;;;;;;22.37;5.60;;;;;;;15.57;79.68;95713.72;5023267;28;20352;-71
2023/09/29 05:40:02;;;;;;;19.37;5.37;;;;;;;15.78;80.12;95720.53;5015512;28;20293;-71
2023/09/29 05:42:28;;;;;;;26.33;6.43;;;;;;;15.81;78.33;95712.19;5010187;28;20233;-71
2023/09/29 05:44:53;;;;;;;19.60;6.27;;;;;;;15.79;78.74;95728.22;5021307;28;20229;-71
2023/09/29 05:47:20;;;;;;;17.07;5.83;;;;;;;15.81;79.11;95715.63;5016536;28;20253;-70
2023/09/29 05:49:46;;;;;;;16.27;5.80;;;;;;;15.91;79.04;95726.53;5022349;28;20229;-70
2023/09/29 05:52:11;;;;;;;19.40;6.00;;;;;;;15.83;77.98;95728.63;5016072;28;20981;-71
2023/09/29 05:54:37;;;;;;;21.50;6.13;;;;;;;15.76;79.36;95723.34;4999508;28;20731;-71
2023/09/29 05:57:03;;;;;;;15.97;5.80;;;;;;;15.78;79.33;95721.34;4998242;28;20230;-71
2023/09/29 05:59:29;;;;;;;19.90;5.90;;;;;;;15.57;78.79;95724.25;5024114;28;20225;-71
2023/09/29 06:01:55;;;;;;;16.03;5.57;;;;;;;15.78;79.94;95725.81;5000173;28;20320;-72
2023/09/29 06:04:22;;;;;;;17.03;5.23;;;;;;;15.93;78.26;95721.84;5014720;28;20801;-72
2023/09/29 06:06:47;;;;;;;16.93;5.90;;;;;;;16.05;78.47;95725.41;5011162;28;20238;-73
2023/09/29 06:09:13;;;;;;;15.03;6.30;;;;;;;16.00;77.96;95725.25;5017934;28;20789;-73
2023/09/29 06:11:39;;;;;;;16.93;5.70;;;;;;;15.98;79.03;95721.19;4998145;28;20232;-73
2023/09/29 06:14:05;;;;;;;17.97;5.90;;;;;;;16.01;79.80;95718.94;5022462;28;20234;-73
2023/09/29 06:16:31;;;;;;;20.73;5.80;;;;;;;16.06;79.10;95721.75;4998866;28;20223;-74
2023/09/29 06:18:56;;;;;;;17.47;5.80;;;;;;;16.07;80.55;95725.22;5015954;28;20225;-73
2023/09/29 06:21:22;;;;;;;15.50;6.00;;;;;;;15.88;79.76;95718.25;5014588;28;20280;-74
2023/09/29 06:23:48;;;;;;;22.80;5.77;;;;;;;16.05;79.79;95724.59;5023128;28;20241;-73
2023/09/29 06:26:14;;;;;;;20.07;5.40;;;;;;;16.26;78.24;95726.09;5023699;28;20229;-72
2023/09/29 06:28:39;;;;;;;25.37;5.53;;;;;;;16.36;78.44;95723.78;5009737;28;20229;-73
2023/09/29 06:31:06;;;;;;;19.67;5.40;;;;;;;16.53;77.93;95719.59;5018493;28;20230;-73
2023/09/29 06:33:32;;;;;;;19.03;5.40;;;;;;;16.62;77.13;95723.59;4995242;28;20239;-73
2023/09/29 06:35:57;;;;;;;19.23;5.47;;;;;;;16.60;76.18;95715.88;5006388;28;20234;-73
2023/09/29 06:38:23;;;;;;;20.97;5.43;;;;;;;16.65;77.27;95720.50;4999291;28;20237;-71
2023/09/29 06:40:49;;;;;;;21.80;5.90;;;;;;;16.68;76.04;95722.72;5011740;28;20225;-72
2023/09/29 06:43:17;;;;;;;16.60;5.83;;;;;;;16.71;76.25;95712.53;4997805;28;20229;-71
2023/09/29 06:45:42;;;;;;;16.10;6.07;;;;;;;16.77;76.27;95716.94;4990219;28;20230;-72
2023/09/29 06:48:08;;;;;;;18.77;5.87;;;;;;;16.64;75.84;95718.91;5012165;28;20226;-70
2023/09/29 06:50:33;;;;;;;22.37;5.93;;;;;;;16.75;75.91;95728.75;5035607;28;20230;-71
2023/09/29 06:53:14;;;;;;;22.63;5.80;;;;;;;16.86;76.32;95721.97;5018201;28;20234;-70
2023/09/29 06:55:39;;;;;;;22.03;6.80;;;;;;;17.02;75.37;95724.84;5014761;28;21063;-70
2023/09/29 06:58:08;;;;;;;27.77;7.33;;;;;;;17.13;74.41;95721.44;5013728;28;20319;-70
2023/09/29 07:00:34;;;;;;;20.27;7.13;;;;;;;17.24;74.54;95720.72;5008730;28;20226;-72
2023/09/29 07:02:59;;;;;;;24.03;7.20;;;;;;;17.36;73.66;95720.81;5021788;28;20308;-72
2023/09/29 07:05:25;;;;;;;20.37;7.63;;;;;;;17.43;74.37;95722.31;5027146;28;20316;-71
2023/09/29 07:07:50;;;;;;;21.23;7.37;;;;;;;17.60;73.01;95713.81;5020797;28;20295;-71
2023/09/29 07:10:16;;;;;;;25.00;7.97;;;;;;;17.71;72.61;95721.00;5022662;28;20222;-71
2023/09/29 07:12:41;;;;;;;25.20;7.90;;;;;;;17.74;73.22;95713.44;4981765;28;21060;-71
2023/09/29 07:15:08;;;;;;;24.87;7.50;;;;;;;17.87;72.21;95717.72;5037121;28;20222;-71
2023/09/29 07:17:34;;;;;;;25.30;8.10;;;;;;;17.84;72.57;95715.53;5010043;28;20234;-71
2023/09/29 07:19:59;;;;;;;20.47;7.20;;;;;;;17.92;73.90;95725.78;5041341;28;20287;-71
2023/09/29 07:22:25;;;;;;;21.13;7.20;;;;;;;17.98;71.84;95725.69;5004525;28;20326;-70
2023/09/29 07:24:52;;;;;;;24.73;7.83;;;;;;;18.02;71.38;95721.59;5020170;28;20260;-71
2023/09/29 07:27:18;;;;;;;23.80;7.60;;;;;;;18.03;70.95;95725.84;5016822;28;20262;-70
2023/09/29 07:29:43;;;;;;;24.87;7.17;;;;;;;18.13;70.32;95722.63;5018508;28;20311;-71
2023/09/29 07:32:10;;;;;;;20.63;6.67;;;;;;;18.21;69.67;95724.97;5015396;28;20284;-70
2023/09/29 07:34:36;;;;;;;24.70;6.80;;;;;;;18.20;68.08;95731.28;5000001;28;20237;-72
2023/09/29 07:37:02;;;;;;;18.47;6.47;;;;;;;18.34;70.02;95723.97;5018224;28;20235;-71
2023/09/29 07:39:27;;;;;;;20.40;6.07;;;;;;;18.37;68.63;95734.91;5025241;28;20677;-71
2023/09/29 07:41:53;;;;;;;21.43;6.17;;;;;;;18.36;67.83;95728.00;5026298;28;20242;-71
2023/09/29 07:44:18;;;;;;;20.53;5.80;;;;;;;18.39;68.32;95735.50;5019625;28;20328;-71
2023/09/29 07:46:46;;;;;;;20.87;5.80;;;;;;;18.51;68.65;95735.56;5024604;28;20226;-70
2023/09/29 07:49:14;;;;;;;21.47;5.87;;;;;;;18.61;68.07;95731.28;5003433;28;20237;-71
2023/09/29 07:51:40;;;;;;;20.00;6.00;;;;;;;18.63;66.73;95739.00;5013503;28;21140;-71
2023/09/29 07:54:06;;;;;;;20.57;6.07;;;;;;;18.76;66.76;95734.31;5041266;28;20287;-71
2023/09/29 07:56:31;;;;;;;23.40;5.90;;;;;;;18.70;66.91;95727.25;5008641;28;20222;-70
2023/09/29 07:58:58;;;;;;;26.40;6.03;;;;;;;18.78;68.18;95737.53;5007421;28;20705;-70
2023/09/29 08:01:23;;;;;;;19.10;5.80;;;;;;;18.88;68.85;95729.00;5041648;28;20256;-70
2023/09/29 08:03:49;;;;;;;26.10;5.83;;;;;;;18.88;68.05;95734.31;5040575;28;20226;-70
2023/09/29 08:06:17;;;;;;;20.00;5.90;;;;;;;18.95;67.03;95731.53;5025755;28;20703;-71
2023/09/29 08:08:43;;;;;;;28.73;5.67;;;;;;;19.04;66.99;95724.84;5024487;28;20234;-70
2023/09/29 08:11:08;;;;;;;15.53;5.43;;;;;;;18.99;67.29;95722.88;5025500;28;20768;-71
2023/09/29 08:13:34;;;;;;;20.43;5.60;;;;;;;19.06;67.07;95720.13;5040454;28;20237;-71
2023/09/29 08:16:00;;;;;;;21.83;5.90;;;;;;;19.11;65.40;95728.16;5007275;28;20234;-71
2023/09/29 08:18:26;;;;;;;19.73;5.20;;;;;;;19.19;64.70;95727.81;5017358;28;20249;-71
2023/09/29 08:20:53;;;;;;;16.83;5.43;;;;;;;19.28;64.88;95721.94;5014273;28;20715;-71
2023/09/29 08:23:18;;;;;;;16.47;5.67;;;;;;;19.32;64.16;95728.38;4992177;28;20245;-70
2023/09/29 08:25:45;;;;;;;19.80;5.80;;;;;;;19.38;64.95;95724.84;5023804;28;20218;-71
2023/09/29 08:28:13;;;;;;;27.73;8.00;;;;;;;19.47;63.45;95722.59;5011757;28;20242;-70
2023/09/29 08:30:39;;;;;;;18.53;5.50;;;;;;;19.70;60.92;95721.75;5002056;28;20776;-70
2023/09/29 08:33:04;;;;;;;24.30;5.77;;;;;;;19.82;61.36;95723.28;5039939;28;20643;-70
2023/09/29 08:35:30;;;;;;;18.97;4.73;;;;;;;19.87;60.82;95714.63;4991555;28;20253;-71
2023/09/29 08:37:56;;;;;;;15.07;4.50;;;;;;;20.02;59.33;95720.22;5002252;28;20718;-71
2023/09/29 08:40:21;;;;;;;8.57;4.07;;;;;;;20.00;59.30;95712.50;5017804;28;20227;-71
2023/09/29 08:42:50;;;;;;;14.33;3.90;;;;;;;20.17;56.06;95718.66;5019802;28;20848;-70
2023/09/29 08:45:17;;;;;;;13.80;4.20;;;;;;;20.33;54.23;95719.75;5007667;28;20283;-68
2023/09/29 08:47:43;;;;;;;16.40;4.40;;;;;;;20.46;53.68;95719.44;5017326;28;20256;-71
2023/09/29 08:50:09;;;;;;;14.67;4.37;;;;;;;20.51;53.79;95722.19;5016753;28;20654;-70
2023/09/29 08:52:35;;;;;;;14.00;4.23;;;;;;;20.53;54.91;95720.09;5018641;28;20304;-71
2023/09/29 08:55:04;;;;;;;15.03;4.10;;;;;;;20.62;53.47;95718.63;4993744;28;20230;-70
2023/09/29 08:57:30;;;;;;;13.20;4.17;;;;;;;20.60;54.10;95719.91;4991792;28;20650;-70
2023/09/29 08:59:55;;;;;;;9.77;4.00;;;;;;;20.69;51.11;95718.47;4999555;28;20241;-70
2023/09/29 09:02:24;;;;;;;14.03;4.20;;;;;;;20.71;50.54;95721.69;5007454;28;20368;-71
2023/09/29 09:04:50;;;;;;;10.13;4.03;;;;;;;20.66;53.50;95711.75;5007030;28;20737;-70
2023/09/29 09:07:15;;;;;;;15.67;4.10;;;;;;;20.56;52.02;95713.47;5015422;28;20707;-70
2023/09/29 09:09:59;;;;;;;13.57;4.13;;;;;;;20.71;50.52;95711.03;5022688;28;20230;-70
2023/09/29 09:12:35;;;;;;;16.60;3.80;;;;;;;20.83;50.90;95715.22;5007538;28;20711;-71
2023/09/29 09:15:01;;;;;;;10.70;3.50;;;;;;;20.79;50.90;95710.63;5016566;28;20295;-70
2023/09/29 09:17:28;;;;;;;14.33;3.77;;;;;;;20.77;49.77;95715.41;4991137;28;20234;-70
2023/09/29 09:19:54;;;;;;;13.60;3.50;;;;;;;20.72;51.20;95710.81;5015266;28;20248;-70
2023/09/29 09:22:31;;;;;;;9.07;3.57;;;;;;;20.74;50.78;95718.53;4996248;28;20259;-70
2023/09/29 09:25:04;;;;;;;12.80;3.60;;;;;;;20.87;47.75;95720.06;5019878;28;20249;-71
2023/09/29 09:27:37;;;;;;;7.00;3.00;;;;;;;20.81;50.77;95713.84;5006480;28;20230;-71
2023/09/29 09:30:04;;;;;;;15.97;3.43;;;;;;;20.79;51.60;95714.09;5006976;28;20229;-71
2023/09/29 09:32:29;;;;;;;20.23;4.10;;;;;;;20.85;49.94;95717.63;5016328;28;20222;-69
2023/09/29 09:34:55;;;;;;;20.17;4.00;;;;;;;20.83;50.53;95715.22;5018005;28;20253;-70
2023/09/29 09:37:27;;;;;;;11.13;4.00;;;;;;;20.94;48.69;95715.38;4984875;28;20279;-70
2023/09/29 09:39:54;;;;;;;15.27;4.13;;;;;;;21.04;48.34;95704.88;5021323;28;20249;-76
2023/09/29 09:42:21;;;;;;;9.13;3.73;;;;;;;21.08;48.91;95711.34;5019328;28;20329;-76
2023/09/29 09:44:46;;;;;;;15.13;4.03;;;;;;;21.08;51.96;95709.50;5016652;28;20221;-76
2023/09/29 09:47:14;;;;;;;11.83;3.80;;;;;;;20.95;51.29;95706.31;5022754;28;20307;-78
2023/09/29 09:49:44;;;;;;;10.43;3.80;;;;;;;20.86;51.92;95705.94;5017150;28;20748;-77
2023/09/29 09:52:15;;;;;;;11.73;3.90;;;;;;;20.92;49.01;95702.28;4981863;28;20222;-77
2023/09/29 09:54:46;;;;;;;17.53;4.20;;;;;;;21.21;48.90;95706.47;4991894;28;20718;-77
2023/09/29 09:57:13;;;;;;;16.73;4.27;;;;;;;21.26;48.21;95706.53;5016667;28;20250;-77
2023/09/29 09:59:41;;;;;;;11.33;4.00;;;;;;;21.44;47.35;95708.91;4999684;28;20232;-77
2023/09/29 10:02:07;;;;;;;16.40;4.10;;;;;;;21.70;46.36;95712.69;5006415;28;20287;-78
2023/09/29 10:04:34;;;;;;;13.50;4.10;;;;;;;21.81;47.96;95698.41;5012425;28;20256;-79
2023/09/29 10:07:00;;;;;;;15.50;4.07;;;;;;;21.98;45.73;95703.69;5008244;28;20230;-78
2023/09/29 10:09:26;;;;;;;12.07;3.83;;;;;;;22.03;47.18;95695.72;5010915;28;20245;-77
2023/09/29 10:11:58;;;;;;;16.27;4.23;;;;;;;22.29;45.26;95696.78;5004358;28;20241;-78
2023/09/29 10:14:23;;;;;;;14.70;4.10;;;;;;;22.33;42.85;95690.69;5022805;28;20230;-79
2023/09/29 10:16:51;;;;;;;18.83;4.27;;;;;;;22.27;43.42;95691.69;5023620;28;20654;-76
2023/09/29 10:19:17;;;;;;;10.20;3.77;;;;;;;22.32;43.19;95691.75;5006425;28;20935;-77
2023/09/29 10:21:45;;;;;;;12.17;4.50;;;;;;;22.54;42.90;95692.47;5022801;28;20225;-76
2023/09/29 10:24:13;;;;;;;13.03;4.30;;;;;;;22.59;42.49;95687.16;4997303;28;20703;-78
2023/09/29 10:26:48;;;;;;;16.30;4.10;;;;;;;22.46;41.41;95679.59;5013784;28;20252;-75
2023/09/29 10:29:28;;;;;;;12.57;4.00;;;;;;;22.50;41.40;95683.34;5000153;28;20229;-77
2023/09/29 10:32:07;;;;;;;9.27;4.07;;;;;;;22.60;41.07;95680.78;5005699;28;20230;-76
2023/09/29 10:34:34;;;;;;;12.23;4.30;;;;;;;22.71;40.37;95679.03;5009380;28;20284;-79
2023/09/29 10:37:00;;;;;;;11.73;4.10;;;;;;;22.94;38.40;95683.16;5036652;28;20304;-77
2023/09/29 10:39:29;;;;;;;12.27;4.07;;;;;;;23.08;38.95;95684.31;5005967;28;20246;-75
2023/09/29 10:41:58;;;;;;;9.93;4.28;;;;;;;23.09;38.62;95668.06;5000081;28;20291;-77
2023/09/29 10:44:27;;;;;;;15.17;4.20;;;;;;;23.15;38.67;95668.84;5016699;28;20330;-76
2023/09/29 10:46:53;;;;;;;17.07;4.50;;;;;;;23.28;38.74;95679.91;5005863;28;20230;-77
2023/09/29 10:49:18;;;;;;;10.63;4.10;;;;;;;23.37;39.66;95672.22;5015451;28;20222;-77
2023/09/29 10:51:45;;;;;;;18.55;4.50;;;;;;;23.51;39.33;95665.31;5019473;28;20605;-77
2023/09/29 10:54:11;;;;;;;10.20;4.20;;;;;;;23.53;39.61;95660.50;5009042;28;20308;-77
2023/09/29 10:56:37;;;;;;;17.55;4.40;;;;;;;23.59;37.99;95670.16;4992397;28;20353;-75
2023/09/29 10:59:07;;;;;;;12.93;4.33;;;;;;;23.69;37.72;95664.06;5042401;28;20308;-76
2023/09/29 11:01:33;;;;;;;14.43;4.45;;;;;;;23.81;38.75;95664.63;5008820;28;20309;-77
2023/09/29 11:04:03;;;;;;;14.75;4.60;;;;;;;23.86;37.62;95661.97;5040752;28;20234;-76
2023/09/29 11:06:29;;;;;;;9.68;4.20;;;;;;;23.82;37.89;95658.19;5009786;28;20287;-76
2023/09/29 11:08:58;;;;;;;13.13;4.70;;;;;;;23.89;38.68;95656.06;5016660;28;20651;-77
2023/09/29 11:11:35;;;;;;;10.57;4.30;;;;;;;24.12;37.37;95658.28;5008587;28;20291;-75
2023/09/29 11:14:04;;;;;;;16.15;4.85;;;;;;;24.10;38.19;95655.88;5019925;28;21397;-75
2023/09/29 11:16:30;;;;;;;19.55;4.70;;;;;;;24.09;36.54;95656.94;5027247;28;20226;-78
2023/09/29 11:18:58;;;;;;;14.52;4.70;;;;;;;24.19;37.84;95650.00;5005036;28;20329;-77
2023/09/29 11:21:36;;;;;;;14.07;4.47;;;;;;;24.04;37.40;95656.91;5003490;28;20222;-78
2023/09/29 11:24:06;;;;;;;16.25;4.45;;;;;;;24.21;37.67;95643.31;5020624;28;20249;-75
2023/09/29 11:26:32;;;;;;;11.90;4.78;;;;;;;24.42;37.73;95644.13;5012718;28;20226;-78
2023/09/29 11:28:58;;;;;;;12.63;4.78;;;;;;;24.41;38.16;95650.56;5002560;28;20938;-76